Terminal Aerodrome Forecast
Issued by NWS

Home | Current Version | Previous Version | Text Only | Print | Product List | Glossary On
Versions: 1 2 3 4 5 6 7 8 9 10 11 12 13 14 15 16
000
FTUS43 KIND 290500
TAFBMG
TAF
KBMG 290520Z 2906/3006 11002KT P6SM BKN250
     FM291500 17005KT P6SM FEW040 BKN150
     FM291800 17007KT P6SM SCT040 SCT120 BKN250
     FM300100 17004KT P6SM FEW040 SCT120 BKN250
      AMD LTD TO CLD VIS AND WIND TIL 291300=

USA.gov is the U.S. government's official web portal to all federal, state and local government web resources and services.